TimePDT,TemperatureF,Dew PointF,Humidity,Sea Level PressureIn,VisibilityMPH,Wind Direction,Wind SpeedMPH,Gust SpeedMPH,PrecipitationIn,Events,Conditions,WindDirDegrees,DateUTC
12:53 AM,68.0,55.9,65,29.90,-9999.0,WNW,3.5,-,0.02,Rain,Rain,290,2012-10-11 07:53:00
1:53 AM,71.1,53.1,53,29.90,-9999.0,West,6.9,-,0.00,,Mostly Cloudy,270,2012-10-11 08:53:00
2:53 AM,59.0,51.1,75,29.89,-9999.0,Calm,Calm,-,0.01,Rain,Light Rain,0,2012-10-11 09:53:00
3:53 AM,69.1,50.0,51,29.88,-9999.0,West,3.5,-,0.00,,Clear,280,2012-10-11 10:53:00
4:53 AM,70.0,52.0,53,29.89,-9999.0,SW,4.6,-,N/A,,Overcast,220,2012-10-11 11:53:00
5:53 AM,62.6,46.4,55,29.88,5.0,West,6.9,-,N/A,,Haze,280,2012-10-11 12:53:00
6:53 AM,62.2,51.1,67,29.89,7.0,West,4.6,-,N/A,,Haze,280,2012-10-11 13:53:00
7:29 AM,62.6,50.0,63,29.91,7.0,WNW,3.5,-,N/A,,Scattered Clouds,300,2012-10-11 14:29:00
7:53 AM,62.2,50.0,64,29.90,7.0,WNW,3.5,-,N/A,,Scattered Clouds,300,2012-10-11 14:53:00
8:53 AM,62.6,54.0,73,29.91,7.0,Calm,Calm,-,N/A,,Scattered Clouds,0,2012-10-11 15:53:00
9:53 AM,66.9,54.0,63,29.92,7.0,NE,4.6,-,N/A,,Scattered Clouds,40,2012-10-11 16:53:00
10:53 AM,66.9,54.0,63,29.93,7.0,Variable,5.8,-,N/A,,Scattered Clouds,0,2012-10-11 17:53:00
11:13 AM,66.2,53.6,64,29.95,7.0,North,4.6,-,0.00,Rain,Rain,10,2012-10-11 18:13:00
11:53 AM,66.2,54.0,65,29.93,7.0,North,5.8,-,0.16,Rain,Light Rain,350,2012-10-11 18:53:00
12:53 PM,63.3,55.0,74,29.92,7.0,WNW,5.8,-,0.02,Rain,Light Rain,290,2012-10-11 19:53:00
1:53 PM,64.4,54.0,69,29.90,7.0,NNW,6.9,-,0.04,,Mostly Cloudy,330,2012-10-11 20:53:00
2:53 PM,64.4,54.1,69,29.91,7.0,ENE,4.6,-,N/A,,Mostly Cloudy,60,2012-10-11 21:53:00
3:00 PM,71.6,57.2,60,29.92,7.0,ENE,5.8,-,N/A,,Mostly Cloudy,60,2012-10-11 22:00:00
3:53 PM,69.1,54.0,58,29.90,7.0,ENE,4.6,-,0.00,,Mostly Cloudy,60,2012-10-11 22:53:00
4:53 PM,68.0,55.0,63,29.90,7.0,NNW,9.2,-,0.00,,Overcast,330,2012-10-11 23:53:00
5:26 PM,73.4,53.6,50,29.91,-9999.0,WNW,10.4,-,N/A,,Scattered Clouds,290,2012-10-12 00:26:00
5:53 PM,73.9,54.0,50,29.90,-9999.0,WNW,10.4,-,N/A,,Clear,300,2012-10-12 00:53:00
6:53 PM,72.0,54.0,53,29.91,-9999.0,WNW,10.4,-,N/A,,Clear,300,2012-10-12 01:53:00
7:53 PM,71.1,53.1,53,29.93,-9999.0,West,10.4,-,N/A,,Clear,280,2012-10-12 02:53:00
8:53 PM,69.1,53.1,57,29.94,-9999.0,West,10.4,-,N/A,,Clear,280,2012-10-12 03:53:00
9:53 PM,69.1,52.0,54,29.96,-9999.0,West,10.4,-,N/A,,Clear,280,2012-10-12 04:53:00
10:53 PM,70.0,53.1,55,29.96,-9999.0,West,11.5,-,N/A,,Clear,280,2012-10-12 05:53:00
11:53 PM,70.0,53.1,55,29.97,-9999.0,West,11.5,-,N/A,,Mostly Cloudy,280,2012-10-12 06:53:00